sensor_id;sensor_type;location;lat;lon;timestamp;P1;durP1;ratioP1;P2;durP2;ratioP2
23670;SDS011;12012;51.998;7.614;2023-07-16T00:02:21;6.28;;;2.33;;
23670;SDS011;12012;51.998;7.614;2023-07-16T00:04:47;4.68;;;2.03;;
23670;SDS011;12012;51.998;7.614;2023-07-16T00:07:12;4.10;;;2.42;;
23670;SDS011;12012;51.998;7.614;2023-07-16T00:09:38;3.55;;;2.22;;
23670;SDS011;12012;51.998;7.614;2023-07-16T00:12:04;5.65;;;2.15;;
23670;SDS011;12012;51.998;7.614;2023-07-16T00:14:30;6.45;;;2.53;;
23670;SDS011;12012;51.998;7.614;2023-07-16T00:16:55;3.13;;;1.90;;
23670;SDS011;12012;51.998;7.614;2023-07-16T00:19:21;4.75;;;2.28;;
23670;SDS011;12012;51.998;7.614;2023-07-16T00:21:46;3.72;;;2.30;;
23670;SDS011;12012;51.998;7.614;2023-07-16T00:24:12;3.40;;;2.30;;
23670;SDS011;12012;51.998;7.614;2023-07-16T00:26:37;3.75;;;2.28;;
23670;SDS011;12012;51.998;7.614;2023-07-16T00:29:03;4.68;;;2.17;;
23670;SDS011;12012;51.998;7.614;2023-07-16T00:31:28;3.03;;;2.03;;
23670;SDS011;12012;51.998;7.614;2023-07-16T00:33:54;2.55;;;2.10;;
23670;SDS011;12012;51.998;7.614;2023-07-16T00:36:19;3.28;;;2.42;;
23670;SDS011;12012;51.998;7.614;2023-07-16T00:38:45;7.50;;;3.05;;
23670;SDS011;12012;51.998;7.614;2023-07-16T00:41:12;3.47;;;2.10;;
23670;SDS011;12012;51.998;7.614;2023-07-16T00:43:38;3.95;;;2.22;;
23670;SDS011;12012;51.998;7.614;2023-07-16T00:46:04;3.83;;;2.58;;
23670;SDS011;12012;51.998;7.614;2023-07-16T00:48:29;3.38;;;2.58;;
23670;SDS011;12012;51.998;7.614;2023-07-16T00:50:55;3.38;;;2.20;;
23670;SDS011;12012;51.998;7.614;2023-07-16T00:53:21;4.05;;;2.60;;
23670;SDS011;12012;51.998;7.614;2023-07-16T00:55:47;5.93;;;2.50;;
23670;SDS011;12012;51.998;7.614;2023-07-16T00:58:13;6.63;;;2.53;;
23670;SDS011;12012;51.998;7.614;2023-07-16T01:00:39;4.07;;;2.45;;
23670;SDS011;12012;51.998;7.614;2023-07-16T01:03:06;3.70;;;2.63;;
23670;SDS011;12012;51.998;7.614;2023-07-16T01:05:45;8.57;;;2.80;;
23670;SDS011;12012;51.998;7.614;2023-07-16T01:08:20;4.72;;;2.33;;
23670;SDS011;12012;51.998;7.614;2023-07-16T01:10:52;5.57;;;2.67;;
23670;SDS011;12012;51.998;7.614;2023-07-16T01:13:19;4.70;;;2.70;;
23670;SDS011;12012;51.998;7.614;2023-07-16T01:15:45;4.22;;;2.65;;
23670;SDS011;12012;51.998;7.614;2023-07-16T01:18:11;5.43;;;2.85;;
23670;SDS011;12012;51.998;7.614;2023-07-16T01:20:36;4.57;;;2.50;;
23670;SDS011;12012;51.998;7.614;2023-07-16T01:23:11;2.88;;;2.58;;
23670;SDS011;12012;51.998;7.614;2023-07-16T01:31:37;3.10;;;2.08;;
23670;SDS011;12012;51.998;7.614;2023-07-16T01:34:05;3.80;;;2.40;;
23670;SDS011;12012;51.998;7.614;2023-07-16T01:36:31;4.32;;;2.70;;
23670;SDS011;12012;51.998;7.614;2023-07-16T01:38:58;5.82;;;2.78;;
23670;SDS011;12012;51.998;7.614;2023-07-16T01:41:23;4.43;;;2.53;;
23670;SDS011;12012;51.998;7.614;2023-07-16T01:43:50;3.25;;;2.65;;
23670;SDS011;12012;51.998;7.614;2023-07-16T01:46:15;4.47;;;2.75;;
23670;SDS011;12012;51.998;7.614;2023-07-16T01:48:42;5.60;;;2.83;;
23670;SDS011;12012;51.998;7.614;2023-07-16T01:51:07;7.63;;;2.70;;
23670;SDS011;12012;51.998;7.614;2023-07-16T01:53:33;5.93;;;2.47;;
23670;SDS011;12012;51.998;7.614;2023-07-16T01:56:00;4.30;;;2.72;;
23670;SDS011;12012;51.998;7.614;2023-07-16T01:58:27;3.47;;;2.28;;
23670;SDS011;12012;51.998;7.614;2023-07-16T02:00:52;4.00;;;2.80;;
23670;SDS011;12012;51.998;7.614;2023-07-16T02:03:18;4.93;;;2.15;;
23670;SDS011;12012;51.998;7.614;2023-07-16T02:05:43;5.15;;;2.50;;
23670;SDS011;12012;51.998;7.614;2023-07-16T02:08:09;5.53;;;2.60;;
23670;SDS011;12012;51.998;7.614;2023-07-16T02:10:35;6.72;;;2.72;;
23670;SDS011;12012;51.998;7.614;2023-07-16T02:13:01;4.60;;;3.13;;
23670;SDS011;12012;51.998;7.614;2023-07-16T02:15:26;5.15;;;2.95;;
23670;SDS011;12012;51.998;7.614;2023-07-16T02:17:52;5.35;;;2.70;;
23670;SDS011;12012;51.998;7.614;2023-07-16T02:20:17;4.80;;;2.83;;
23670;SDS011;12012;51.998;7.614;2023-07-16T02:22:43;5.90;;;2.92;;
23670;SDS011;12012;51.998;7.614;2023-07-16T02:25:08;6.72;;;2.60;;
23670;SDS011;12012;51.998;7.614;2023-07-16T02:27:34;4.72;;;2.60;;
23670;SDS011;12012;51.998;7.614;2023-07-16T02:30:00;5.55;;;2.65;;
23670;SDS011;12012;51.998;7.614;2023-07-16T02:32:25;6.68;;;2.97;;
23670;SDS011;12012;51.998;7.614;2023-07-16T02:34:51;4.93;;;2.88;;
23670;SDS011;12012;51.998;7.614;2023-07-16T02:37:17;4.85;;;3.10;;
23670;SDS011;12012;51.998;7.614;2023-07-16T02:39:43;6.28;;;3.38;;
23670;SDS011;12012;51.998;7.614;2023-07-16T02:42:11;6.53;;;3.10;;
23670;SDS011;12012;51.998;7.614;2023-07-16T02:44:36;3.58;;;2.85;;
23670;SDS011;12012;51.998;7.614;2023-07-16T02:47:06;7.00;;;3.50;;
23670;SDS011;12012;51.998;7.614;2023-07-16T02:49:32;6.97;;;3.45;;
23670;SDS011;12012;51.998;7.614;2023-07-16T02:51:58;7.32;;;3.38;;
23670;SDS011;12012;51.998;7.614;2023-07-16T02:54:23;7.28;;;2.90;;
23670;SDS011;12012;51.998;7.614;2023-07-16T02:56:49;5.68;;;3.50;;
23670;SDS011;12012;51.998;7.614;2023-07-16T02:59:14;6.35;;;3.60;;
23670;SDS011;12012;51.998;7.614;2023-07-16T03:01:40;7.45;;;3.47;;
23670;SDS011;12012;51.998;7.614;2023-07-16T03:04:05;8.35;;;3.30;;
23670;SDS011;12012;51.998;7.614;2023-07-16T03:06:31;5.18;;;3.55;;
23670;SDS011;12012;51.998;7.614;2023-07-16T03:08:56;6.55;;;3.85;;
23670;SDS011;12012;51.998;7.614;2023-07-16T03:11:22;5.88;;;3.67;;
23670;SDS011;12012;51.998;7.614;2023-07-16T03:13:48;5.57;;;4.20;;
23670;SDS011;12012;51.998;7.614;2023-07-16T03:16:14;6.70;;;3.80;;
23670;SDS011;12012;51.998;7.614;2023-07-16T03:18:39;11.15;;;6.43;;
23670;SDS011;12012;51.998;7.614;2023-07-16T03:21:05;9.75;;;4.32;;
23670;SDS011;12012;51.998;7.614;2023-07-16T03:23:31;8.43;;;4.55;;
23670;SDS011;12012;51.998;7.614;2023-07-16T03:25:56;8.77;;;4.80;;
23670;SDS011;12012;51.998;7.614;2023-07-16T03:28:22;6.70;;;4.82;;
23670;SDS011;12012;51.998;7.614;2023-07-16T03:30:48;7.22;;;4.60;;
23670;SDS011;12012;51.998;7.614;2023-07-16T03:33:14;10.82;;;5.13;;
23670;SDS011;12012;51.998;7.614;2023-07-16T03:35:43;7.32;;;4.40;;
23670;SDS011;12012;51.998;7.614;2023-07-16T03:38:09;10.68;;;5.03;;
23670;SDS011;12012;51.998;7.614;2023-07-16T03:40:35;8.85;;;5.20;;
23670;SDS011;12012;51.998;7.614;2023-07-16T03:43:01;7.00;;;4.45;;
23670;SDS011;12012;51.998;7.614;2023-07-16T03:45:27;9.18;;;4.93;;
23670;SDS011;12012;51.998;7.614;2023-07-16T03:47:53;6.70;;;4.25;;
23670;SDS011;12012;51.998;7.614;2023-07-16T03:50:18;7.30;;;4.78;;
23670;SDS011;12012;51.998;7.614;2023-07-16T03:52:44;11.98;;;5.57;;
23670;SDS011;12012;51.998;7.614;2023-07-16T03:55:10;8.65;;;5.03;;
23670;SDS011;12012;51.998;7.614;2023-07-16T03:57:36;8.93;;;5.63;;
23670;SDS011;12012;51.998;7.614;2023-07-16T04:00:04;8.63;;;5.40;;
23670;SDS011;12012;51.998;7.614;2023-07-16T04:02:32;9.20;;;5.47;;
23670;SDS011;12012;51.998;7.614;2023-07-16T04:04:58;9.43;;;5.00;;
23670;SDS011;12012;51.998;7.614;2023-07-16T04:07:23;7.82;;;5.13;;
23670;SDS011;12012;51.998;7.614;2023-07-16T04:09:49;7.35;;;4.65;;
23670;SDS011;12012;51.998;7.614;2023-07-16T04:12:16;10.80;;;5.35;;
23670;SDS011;12012;51.998;7.614;2023-07-16T04:14:41;10.00;;;5.10;;
23670;SDS011;12012;51.998;7.614;2023-07-16T04:17:07;8.23;;;4.93;;
23670;SDS011;12012;51.998;7.614;2023-07-16T04:19:33;10.75;;;4.72;;
23670;SDS011;12012;51.998;7.614;2023-07-16T04:21:59;9.93;;;5.28;;
23670;SDS011;12012;51.998;7.614;2023-07-16T04:24:24;7.75;;;5.03;;
23670;SDS011;12012;51.998;7.614;2023-07-16T04:26:52;7.55;;;4.72;;
23670;SDS011;12012;51.998;7.614;2023-07-16T04:29:18;8.63;;;4.32;;
23670;SDS011;12012;51.998;7.614;2023-07-16T04:31:43;8.65;;;3.95;;
23670;SDS011;12012;51.998;7.614;2023-07-16T04:34:09;7.72;;;4.20;;
23670;SDS011;12012;51.998;7.614;2023-07-16T04:36:35;8.52;;;4.60;;
23670;SDS011;12012;51.998;7.614;2023-07-16T04:39:00;7.03;;;3.55;;
23670;SDS011;12012;51.998;7.614;2023-07-16T04:41:26;6.68;;;3.75;;
23670;SDS011;12012;51.998;7.614;2023-07-16T04:43:52;10.02;;;4.18;;
23670;SDS011;12012;51.998;7.614;2023-07-16T04:46:18;10.43;;;4.20;;
23670;SDS011;12012;51.998;7.614;2023-07-16T04:48:43;8.68;;;3.72;;
23670;SDS011;12012;51.998;7.614;2023-07-16T04:51:09;9.50;;;4.05;;
23670;SDS011;12012;51.998;7.614;2023-07-16T04:53:35;10.95;;;3.92;;
23670;SDS011;12012;51.998;7.614;2023-07-16T04:56:00;8.27;;;3.28;;
23670;SDS011;12012;51.998;7.614;2023-07-16T04:58:26;4.50;;;2.90;;
23670;SDS011;12012;51.998;7.614;2023-07-16T05:00:51;10.25;;;3.90;;
23670;SDS011;12012;51.998;7.614;2023-07-16T05:03:17;5.85;;;3.50;;
23670;SDS011;12012;51.998;7.614;2023-07-16T05:05:42;9.93;;;3.83;;
23670;SDS011;12012;51.998;7.614;2023-07-16T05:08:08;9.73;;;3.63;;
23670;SDS011;12012;51.998;7.614;2023-07-16T05:10:33;7.47;;;3.45;;
23670;SDS011;12012;51.998;7.614;2023-07-16T05:12:59;7.78;;;3.72;;
23670;SDS011;12012;51.998;7.614;2023-07-16T05:15:25;8.23;;;3.78;;
23670;SDS011;12012;51.998;7.614;2023-07-16T05:17:50;6.05;;;3.40;;
23670;SDS011;12012;51.998;7.614;2023-07-16T05:20:16;7.53;;;4.13;;
23670;SDS011;12012;51.998;7.614;2023-07-16T05:22:42;8.00;;;4.00;;
23670;SDS011;12012;51.998;7.614;2023-07-16T05:25:07;9.85;;;4.28;;
23670;SDS011;12012;51.998;7.614;2023-07-16T05:27:33;11.20;;;4.55;;
23670;SDS011;12012;51.998;7.614;2023-07-16T05:30:00;11.10;;;4.38;;
23670;SDS011;12012;51.998;7.614;2023-07-16T05:32:26;12.88;;;3.80;;
23670;SDS011;12012;51.998;7.614;2023-07-16T05:34:51;7.97;;;4.10;;
23670;SDS011;12012;51.998;7.614;2023-07-16T05:37:17;12.55;;;4.38;;
23670;SDS011;12012;51.998;7.614;2023-07-16T05:39:42;7.13;;;4.18;;
23670;SDS011;12012;51.998;7.614;2023-07-16T05:42:08;8.48;;;3.53;;
23670;SDS011;12012;51.998;7.614;2023-07-16T05:44:35;7.85;;;4.07;;
23670;SDS011;12012;51.998;7.614;2023-07-16T05:47:00;11.50;;;4.15;;
23670;SDS011;12012;51.998;7.614;2023-07-16T05:49:26;9.77;;;4.18;;
23670;SDS011;12012;51.998;7.614;2023-07-16T05:51:52;7.95;;;4.35;;
23670;SDS011;12012;51.998;7.614;2023-07-16T05:54:17;9.90;;;4.57;;
23670;SDS011;12012;51.998;7.614;2023-07-16T05:56:43;8.90;;;4.30;;
23670;SDS011;12012;51.998;7.614;2023-07-16T05:59:08;9.52;;;4.05;;
23670;SDS011;12012;51.998;7.614;2023-07-16T06:01:35;11.02;;;4.32;;
23670;SDS011;12012;51.998;7.614;2023-07-16T06:04:00;8.50;;;4.35;;
23670;SDS011;12012;51.998;7.614;2023-07-16T06:06:27;8.77;;;4.38;;
23670;SDS011;12012;51.998;7.614;2023-07-16T06:08:53;13.35;;;4.50;;
23670;SDS011;12012;51.998;7.614;2023-07-16T06:11:19;12.95;;;5.28;;
23670;SDS011;12012;51.998;7.614;2023-07-16T06:13:45;11.23;;;4.47;;
23670;SDS011;12012;51.998;7.614;2023-07-16T06:16:11;11.68;;;4.57;;
23670;SDS011;12012;51.998;7.614;2023-07-16T06:18:36;8.75;;;4.53;;
23670;SDS011;12012;51.998;7.614;2023-07-16T06:21:02;12.60;;;4.60;;
23670;SDS011;12012;51.998;7.614;2023-07-16T06:23:27;12.55;;;5.32;;
23670;SDS011;12012;51.998;7.614;2023-07-16T06:25:53;8.20;;;4.70;;
23670;SDS011;12012;51.998;7.614;2023-07-16T06:28:22;9.73;;;4.75;;
23670;SDS011;12012;51.998;7.614;2023-07-16T06:30:48;12.65;;;5.30;;
23670;SDS011;12012;51.998;7.614;2023-07-16T06:33:14;10.35;;;4.68;;
23670;SDS011;12012;51.998;7.614;2023-07-16T06:35:43;11.63;;;5.10;;
23670;SDS011;12012;51.998;7.614;2023-07-16T06:38:10;12.18;;;5.32;;
23670;SDS011;12012;51.998;7.614;2023-07-16T06:40:35;9.48;;;4.90;;
23670;SDS011;12012;51.998;7.614;2023-07-16T06:43:01;10.13;;;4.78;;
23670;SDS011;12012;51.998;7.614;2023-07-16T06:45:26;12.23;;;4.95;;
23670;SDS011;12012;51.998;7.614;2023-07-16T06:47:52;8.20;;;4.70;;
23670;SDS011;12012;51.998;7.614;2023-07-16T06:50:17;9.60;;;4.57;;
23670;SDS011;12012;51.998;7.614;2023-07-16T06:52:43;10.32;;;4.65;;
23670;SDS011;12012;51.998;7.614;2023-07-16T06:55:08;12.65;;;4.97;;
23670;SDS011;12012;51.998;7.614;2023-07-16T06:57:34;12.13;;;4.80;;
23670;SDS011;12012;51.998;7.614;2023-07-16T06:59:59;12.18;;;4.22;;
23670;SDS011;12012;51.998;7.614;2023-07-16T07:02:25;10.55;;;4.63;;
23670;SDS011;12012;51.998;7.614;2023-07-16T07:04:51;8.90;;;4.55;;
23670;SDS011;12012;51.998;7.614;2023-07-16T07:07:16;11.18;;;4.55;;
23670;SDS011;12012;51.998;7.614;2023-07-16T07:09:42;9.68;;;4.68;;
23670;SDS011;12012;51.998;7.614;2023-07-16T07:12:08;11.80;;;4.85;;
23670;SDS011;12012;51.998;7.614;2023-07-16T07:14:33;12.05;;;4.90;;
23670;SDS011;12012;51.998;7.614;2023-07-16T07:16:59;11.77;;;4.97;;
23670;SDS011;12012;51.998;7.614;2023-07-16T07:19:25;13.57;;;4.88;;
23670;SDS011;12012;51.998;7.614;2023-07-16T07:21:50;8.38;;;4.88;;
23670;SDS011;12012;51.998;7.614;2023-07-16T07:24:16;11.98;;;4.75;;
23670;SDS011;12012;51.998;7.614;2023-07-16T07:26:42;11.50;;;5.47;;
23670;SDS011;12012;51.998;7.614;2023-07-16T07:29:07;13.65;;;5.00;;
23670;SDS011;12012;51.998;7.614;2023-07-16T07:31:33;10.35;;;5.00;;
23670;SDS011;12012;51.998;7.614;2023-07-16T07:33:58;12.50;;;5.35;;
23670;SDS011;12012;51.998;7.614;2023-07-16T07:36:24;10.52;;;5.22;;
23670;SDS011;12012;51.998;7.614;2023-07-16T07:38:50;10.13;;;5.07;;
23670;SDS011;12012;51.998;7.614;2023-07-16T07:41:15;9.77;;;5.05;;
23670;SDS011;12012;51.998;7.614;2023-07-16T07:43:41;13.45;;;5.30;;
23670;SDS011;12012;51.998;7.614;2023-07-16T07:46:06;13.65;;;5.30;;
23670;SDS011;12012;51.998;7.614;2023-07-16T07:48:32;10.15;;;5.10;;
23670;SDS011;12012;51.998;7.614;2023-07-16T07:50:58;9.68;;;5.25;;
23670;SDS011;12012;51.998;7.614;2023-07-16T07:53:23;17.30;;;5.63;;
23670;SDS011;12012;51.998;7.614;2023-07-16T07:55:49;9.57;;;5.30;;
23670;SDS011;12012;51.998;7.614;2023-07-16T07:58:14;11.32;;;5.07;;
23670;SDS011;12012;51.998;7.614;2023-07-16T08:00:40;15.07;;;5.32;;
23670;SDS011;12012;51.998;7.614;2023-07-16T08:03:05;11.43;;;5.38;;
23670;SDS011;12012;51.998;7.614;2023-07-16T08:05:31;11.18;;;5.10;;
23670;SDS011;12012;51.998;7.614;2023-07-16T08:07:58;12.60;;;5.18;;
23670;SDS011;12012;51.998;7.614;2023-07-16T08:10:24;10.48;;;5.18;;
23670;SDS011;12012;51.998;7.614;2023-07-16T08:12:49;10.90;;;5.47;;
23670;SDS011;12012;51.998;7.614;2023-07-16T08:15:15;12.27;;;4.90;;
23670;SDS011;12012;51.998;7.614;2023-07-16T08:17:41;9.50;;;4.85;;
23670;SDS011;12012;51.998;7.614;2023-07-16T08:20:07;8.32;;;4.60;;
23670;SDS011;12012;51.998;7.614;2023-07-16T08:22:33;11.82;;;4.70;;
23670;SDS011;12012;51.998;7.614;2023-07-16T08:24:59;7.53;;;4.40;;
23670;SDS011;12012;51.998;7.614;2023-07-16T08:27:24;12.40;;;5.10;;
23670;SDS011;12012;51.998;7.614;2023-07-16T08:29:50;12.48;;;4.93;;
23670;SDS011;12012;51.998;7.614;2023-07-16T08:32:15;8.32;;;4.18;;
23670;SDS011;12012;51.998;7.614;2023-07-16T08:34:41;8.30;;;4.63;;
23670;SDS011;12012;51.998;7.614;2023-07-16T08:37:06;8.00;;;4.45;;
23670;SDS011;12012;51.998;7.614;2023-07-16T08:39:32;10.25;;;4.50;;
23670;SDS011;12012;51.998;7.614;2023-07-16T08:41:58;11.07;;;4.18;;
23670;SDS011;12012;51.998;7.614;2023-07-16T08:44:24;7.72;;;4.60;;
23670;SDS011;12012;51.998;7.614;2023-07-16T08:46:50;9.50;;;4.80;;
23670;SDS011;12012;51.998;7.614;2023-07-16T08:49:17;7.72;;;4.30;;
23670;SDS011;12012;51.998;7.614;2023-07-16T08:51:45;8.43;;;4.25;;
23670;SDS011;12012;51.998;7.614;2023-07-16T08:54:13;8.23;;;3.97;;
23670;SDS011;12012;51.998;7.614;2023-07-16T08:56:42;9.55;;;4.50;;
23670;SDS011;12012;51.998;7.614;2023-07-16T08:59:08;12.52;;;5.00;;
23670;SDS011;12012;51.998;7.614;2023-07-16T09:01:35;4.80;;;3.72;;
23670;SDS011;12012;51.998;7.614;2023-07-16T09:04:02;9.88;;;3.80;;
23670;SDS011;12012;51.998;7.614;2023-07-16T09:06:27;8.70;;;4.20;;
23670;SDS011;12012;51.998;7.614;2023-07-16T09:08:53;7.70;;;3.72;;
23670;SDS011;12012;51.998;7.614;2023-07-16T09:11:20;8.70;;;3.78;;
23670;SDS011;12012;51.998;7.614;2023-07-16T09:13:47;8.73;;;4.03;;
23670;SDS011;12012;51.998;7.614;2023-07-16T09:16:17;6.93;;;3.90;;
23670;SDS011;12012;51.998;7.614;2023-07-16T09:18:44;6.97;;;3.85;;
23670;SDS011;12012;51.998;7.614;2023-07-16T09:21:10;9.43;;;3.97;;
23670;SDS011;12012;51.998;7.614;2023-07-16T09:23:36;6.75;;;3.80;;
23670;SDS011;12012;51.998;7.614;2023-07-16T09:26:02;7.15;;;4.10;;
23670;SDS011;12012;51.998;7.614;2023-07-16T09:28:31;6.88;;;3.47;;
23670;SDS011;12012;51.998;7.614;2023-07-16T09:31:02;7.00;;;3.80;;
23670;SDS011;12012;51.998;7.614;2023-07-16T09:33:32;7.10;;;4.00;;
23670;SDS011;12012;51.998;7.614;2023-07-16T09:35:58;7.10;;;3.97;;
23670;SDS011;12012;51.998;7.614;2023-07-16T09:38:23;6.53;;;3.95;;
23670;SDS011;12012;51.998;7.614;2023-07-16T09:40:49;6.20;;;3.65;;
23670;SDS011;12012;51.998;7.614;2023-07-16T09:43:17;9.25;;;4.60;;
23670;SDS011;12012;51.998;7.614;2023-07-16T09:45:42;8.88;;;4.00;;
23670;SDS011;12012;51.998;7.614;2023-07-16T09:48:08;7.68;;;4.03;;
23670;SDS011;12012;51.998;7.614;2023-07-16T09:50:35;7.53;;;4.38;;
23670;SDS011;12012;51.998;7.614;2023-07-16T09:53:03;8.43;;;4.07;;
23670;SDS011;12012;51.998;7.614;2023-07-16T09:55:30;6.88;;;3.92;;
23670;SDS011;12012;51.998;7.614;2023-07-16T09:57:59;9.93;;;4.22;;
23670;SDS011;12012;51.998;7.614;2023-07-16T10:00:27;10.57;;;4.05;;
23670;SDS011;12012;51.998;7.614;2023-07-16T10:02:53;6.72;;;3.90;;
23670;SDS011;12012;51.998;7.614;2023-07-16T10:05:26;8.43;;;4.20;;
23670;SDS011;12012;51.998;7.614;2023-07-16T10:07:56;8.18;;;4.00;;
23670;SDS011;12012;51.998;7.614;2023-07-16T10:10:37;7.65;;;4.15;;
23670;SDS011;12012;51.998;7.614;2023-07-16T10:13:06;7.43;;;4.00;;
23670;SDS011;12012;51.998;7.614;2023-07-16T10:15:32;7.57;;;4.47;;
23670;SDS011;12012;51.998;7.614;2023-07-16T10:17:57;9.27;;;4.43;;
23670;SDS011;12012;51.998;7.614;2023-07-16T10:20:30;7.55;;;4.78;;
23670;SDS011;12012;51.998;7.614;2023-07-16T10:23:11;5.45;;;4.15;;
23670;SDS011;12012;51.998;7.614;2023-07-16T10:25:38;8.15;;;4.43;;
23670;SDS011;12012;51.998;7.614;2023-07-16T10:28:04;8.32;;;4.20;;
23670;SDS011;12012;51.998;7.614;2023-07-16T10:30:30;8.18;;;4.47;;
23670;SDS011;12012;51.998;7.614;2023-07-16T10:32:56;6.10;;;4.18;;
23670;SDS011;12012;51.998;7.614;2023-07-16T10:35:21;7.05;;;4.40;;
23670;SDS011;12012;51.998;7.614;2023-07-16T10:37:47;8.57;;;4.25;;
23670;SDS011;12012;51.998;7.614;2023-07-16T10:40:13;7.15;;;3.80;;
23670;SDS011;12012;51.998;7.614;2023-07-16T10:42:43;11.35;;;4.18;;
23670;SDS011;12012;51.998;7.614;2023-07-16T10:45:09;6.00;;;3.90;;
23670;SDS011;12012;51.998;7.614;2023-07-16T10:47:36;8.70;;;4.07;;
23670;SDS011;12012;51.998;7.614;2023-07-16T10:50:05;9.70;;;4.60;;
23670;SDS011;12012;51.998;7.614;2023-07-16T10:52:33;7.28;;;3.95;;
23670;SDS011;12012;51.998;7.614;2023-07-16T10:54:59;5.30;;;3.78;;
23670;SDS011;12012;51.998;7.614;2023-07-16T10:57:24;7.55;;;3.85;;
23670;SDS011;12012;51.998;7.614;2023-07-16T10:59:51;11.32;;;4.45;;
23670;SDS011;12012;51.998;7.614;2023-07-16T11:02:17;6.65;;;3.90;;
23670;SDS011;12012;51.998;7.614;2023-07-16T11:04:46;7.25;;;3.75;;
23670;SDS011;12012;51.998;7.614;2023-07-16T11:07:12;7.68;;;3.95;;
23670;SDS011;12012;51.998;7.614;2023-07-16T11:10:00;7.70;;;4.07;;
23670;SDS011;12012;51.998;7.614;2023-07-16T11:12:27;7.30;;;4.13;;
23670;SDS011;12012;51.998;7.614;2023-07-16T11:14:54;8.23;;;3.90;;
23670;SDS011;12012;51.998;7.614;2023-07-16T11:17:22;7.30;;;4.38;;
23670;SDS011;12012;51.998;7.614;2023-07-16T11:19:50;8.98;;;4.40;;
23670;SDS011;12012;51.998;7.614;2023-07-16T11:22:17;9.00;;;4.53;;
23670;SDS011;12012;51.998;7.614;2023-07-16T11:24:43;9.13;;;4.80;;
23670;SDS011;12012;51.998;7.614;2023-07-16T11:27:16;8.00;;;3.88;;
23670;SDS011;12012;51.998;7.614;2023-07-16T11:29:53;8.80;;;4.45;;
23670;SDS011;12012;51.998;7.614;2023-07-16T11:32:27;9.80;;;4.38;;
23670;SDS011;12012;51.998;7.614;2023-07-16T11:34:56;10.00;;;4.53;;
23670;SDS011;12012;51.998;7.614;2023-07-16T11:37:26;6.40;;;4.13;;
23670;SDS011;12012;51.998;7.614;2023-07-16T11:39:57;6.07;;;4.00;;
23670;SDS011;12012;51.998;7.614;2023-07-16T11:42:27;6.35;;;4.05;;
23670;SDS011;12012;51.998;7.614;2023-07-16T11:44:58;8.23;;;4.47;;
23670;SDS011;12012;51.998;7.614;2023-07-16T11:47:24;6.88;;;4.20;;
23670;SDS011;12012;51.998;7.614;2023-07-16T11:49:51;8.15;;;4.05;;
23670;SDS011;12012;51.998;7.614;2023-07-16T11:52:26;4.72;;;3.53;;
23670;SDS011;12012;51.998;7.614;2023-07-16T11:54:53;5.47;;;4.07;;
23670;SDS011;12012;51.998;7.614;2023-07-16T11:57:21;7.63;;;3.47;;
23670;SDS011;12012;51.998;7.614;2023-07-16T11:59:46;7.03;;;3.67;;
23670;SDS011;12012;51.998;7.614;2023-07-16T12:02:12;7.75;;;3.78;;
23670;SDS011;12012;51.998;7.614;2023-07-16T12:04:38;7.45;;;3.60;;
23670;SDS011;12012;51.998;7.614;2023-07-16T12:07:04;5.32;;;3.67;;
23670;SDS011;12012;51.998;7.614;2023-07-16T12:09:29;5.43;;;3.83;;
23670;SDS011;12012;51.998;7.614;2023-07-16T12:11:55;6.25;;;3.80;;
23670;SDS011;12012;51.998;7.614;2023-07-16T12:14:21;5.13;;;3.40;;
23670;SDS011;12012;51.998;7.614;2023-07-16T12:16:47;6.20;;;4.05;;
23670;SDS011;12012;51.998;7.614;2023-07-16T12:19:13;8.38;;;4.15;;
23670;SDS011;12012;51.998;7.614;2023-07-16T12:21:38;5.57;;;3.70;;
23670;SDS011;12012;51.998;7.614;2023-07-16T12:24:04;5.88;;;3.70;;
23670;SDS011;12012;51.998;7.614;2023-07-16T12:26:30;5.72;;;3.88;;
23670;SDS011;12012;51.998;7.614;2023-07-16T12:28:56;6.20;;;3.85;;
23670;SDS011;12012;51.998;7.614;2023-07-16T12:31:21;6.95;;;4.10;;
23670;SDS011;12012;51.998;7.614;2023-07-16T12:33:47;6.75;;;3.72;;
23670;SDS011;12012;51.998;7.614;2023-07-16T12:36:13;6.20;;;3.78;;
23670;SDS011;12012;51.998;7.614;2023-07-16T12:38:39;7.78;;;3.60;;
23670;SDS011;12012;51.998;7.614;2023-07-16T12:41:06;6.32;;;4.40;;
23670;SDS011;12012;51.998;7.614;2023-07-16T12:43:32;7.38;;;4.25;;
23670;SDS011;12012;51.998;7.614;2023-07-16T12:46:01;8.82;;;4.03;;
23670;SDS011;12012;51.998;7.614;2023-07-16T12:48:29;7.35;;;3.95;;
23670;SDS011;12012;51.998;7.614;2023-07-16T12:50:54;6.15;;;4.22;;
23670;SDS011;12012;51.998;7.614;2023-07-16T12:53:20;6.90;;;3.55;;
23670;SDS011;12012;51.998;7.614;2023-07-16T12:55:46;5.45;;;4.00;;
23670;SDS011;12012;51.998;7.614;2023-07-16T12:58:11;7.13;;;4.13;;
23670;SDS011;12012;51.998;7.614;2023-07-16T13:00:37;5.65;;;3.67;;
23670;SDS011;12012;51.998;7.614;2023-07-16T13:03:02;7.90;;;4.10;;
23670;SDS011;12012;51.998;7.614;2023-07-16T13:05:29;7.22;;;4.00;;
23670;SDS011;12012;51.998;7.614;2023-07-16T13:07:55;6.80;;;3.80;;
23670;SDS011;12012;51.998;7.614;2023-07-16T13:10:20;6.03;;;3.83;;
23670;SDS011;12012;51.998;7.614;2023-07-16T13:12:46;8.05;;;4.20;;
23670;SDS011;12012;51.998;7.614;2023-07-16T13:15:11;6.88;;;3.72;;
23670;SDS011;12012;51.998;7.614;2023-07-16T13:17:37;7.25;;;3.65;;
23670;SDS011;12012;51.998;7.614;2023-07-16T13:20:03;6.55;;;3.63;;
23670;SDS011;12012;51.998;7.614;2023-07-16T13:22:30;5.22;;;3.80;;
23670;SDS011;12012;51.998;7.614;2023-07-16T13:24:55;5.20;;;3.58;;
23670;SDS011;12012;51.998;7.614;2023-07-16T13:27:21;6.63;;;3.75;;
23670;SDS011;12012;51.998;7.614;2023-07-16T13:29:48;8.35;;;3.92;;
23670;SDS011;12012;51.998;7.614;2023-07-16T13:32:13;11.15;;;4.00;;
23670;SDS011;12012;51.998;7.614;2023-07-16T13:34:39;6.90;;;4.07;;
23670;SDS011;12012;51.998;7.614;2023-07-16T13:37:04;6.50;;;3.78;;
23670;SDS011;12012;51.998;7.614;2023-07-16T13:39:31;6.38;;;3.65;;
23670;SDS011;12012;51.998;7.614;2023-07-16T13:41:56;7.00;;;3.65;;
23670;SDS011;12012;51.998;7.614;2023-07-16T13:44:22;7.13;;;3.65;;
23670;SDS011;12012;51.998;7.614;2023-07-16T13:46:47;6.85;;;3.67;;
23670;SDS011;12012;51.998;7.614;2023-07-16T13:49:13;6.63;;;3.30;;
23670;SDS011;12012;51.998;7.614;2023-07-16T13:51:39;5.32;;;3.58;;
23670;SDS011;12012;51.998;7.614;2023-07-16T13:54:04;6.43;;;3.63;;
23670;SDS011;12012;51.998;7.614;2023-07-16T13:56:30;6.38;;;3.38;;
23670;SDS011;12012;51.998;7.614;2023-07-16T13:58:56;5.07;;;3.42;;
23670;SDS011;12012;51.998;7.614;2023-07-16T14:01:22;4.72;;;3.10;;
23670;SDS011;12012;51.998;7.614;2023-07-16T14:03:48;5.32;;;3.33;;
23670;SDS011;12012;51.998;7.614;2023-07-16T14:06:13;4.78;;;3.15;;
23670;SDS011;12012;51.998;7.614;2023-07-16T14:08:39;5.57;;;3.28;;
23670;SDS011;12012;51.998;7.614;2023-07-16T14:11:04;4.07;;;2.95;;
23670;SDS011;12012;51.998;7.614;2023-07-16T14:13:30;3.42;;;2.60;;
23670;SDS011;12012;51.998;7.614;2023-07-16T14:15:56;6.47;;;2.83;;
23670;SDS011;12012;51.998;7.614;2023-07-16T14:18:21;3.50;;;2.60;;
23670;SDS011;12012;51.998;7.614;2023-07-16T14:20:47;5.63;;;2.60;;
23670;SDS011;12012;51.998;7.614;2023-07-16T14:23:12;4.65;;;2.85;;
23670;SDS011;12012;51.998;7.614;2023-07-16T14:25:38;3.97;;;2.60;;
23670;SDS011;12012;51.998;7.614;2023-07-16T14:28:04;3.75;;;2.58;;
23670;SDS011;12012;51.998;7.614;2023-07-16T14:30:29;2.78;;;2.47;;
23670;SDS011;12012;51.998;7.614;2023-07-16T14:32:55;4.82;;;2.70;;
23670;SDS011;12012;51.998;7.614;2023-07-16T14:35:21;3.65;;;2.53;;
23670;SDS011;12012;51.998;7.614;2023-07-16T14:37:47;4.40;;;2.80;;
23670;SDS011;12012;51.998;7.614;2023-07-16T14:40:13;4.15;;;2.33;;
23670;SDS011;12012;51.998;7.614;2023-07-16T14:42:39;2.70;;;2.05;;
23670;SDS011;12012;51.998;7.614;2023-07-16T14:45:05;4.72;;;3.00;;
23670;SDS011;12012;51.998;7.614;2023-07-16T14:47:33;4.75;;;2.35;;